Aérodrome :
LOGIN :

S'inscrire | Disclaimer

   EN    FR    IT 

 










Légende :    VFR   VFR Marginal   IFR   IFR Intensif   IFR Très Intensif
Visi : 
Plafond : 
>= 8 km
>= 3000ft
5 à 8 km
1000 à 3000 ft
1500m à 5 km
500 à 1000 ft
800 à 1500m
200 à 500 ft
< 800m
< 200 ft
Symboles :   Orages  Brouillard  Fortes neiges  Fortes précipitations  Vent > 20 kt
SIGMETs :   Divers  Orages  Givrage  Turbulence  Onde Orograph.  Cendres Volcan.






- Altitude de l'aérodrome : 659 ft
- Code IATA : LYN


LFLY - Lyon Bron

DERNIER METAR :
  • 281200Z AUTO 01009KT 320V040 CAVOK 25/09 Q1025

METARs EXPIRÉS :
  • 281130Z AUTO 01009KT 330V040 CAVOK 24/09 Q1025
  • 281100Z AUTO 01009KT 330V050 CAVOK 24/09 Q1025
  • 281030Z AUTO 01010KT 330V050 CAVOK 23/09 Q1026
  • 281000Z AUTO 35008KT 300V040 CAVOK 23/09 Q1026
  • 280930Z AUTO VRB06KT CAVOK 22/10 Q1026

Prévision TAF périmée.
ATIS : +33 4 72 15 87 96



MET'MAP, la Météo Aéronautique d'un coup d'oeil ! - Copyright ORBIFLY Décembre 2007 - Disclaimer

ORBIFLY MET'MAP TEAM :

Programmation & Développement : Alexandra Zaïnal
Sur une idée originale de : Baudouin d'Aumeries
Assistance à la programmation : Marc-Olivier Méhu
Soutien technique & logistique : Manuel Goepfert

Contact : metmap@orbifly.com




SOURCES & CREDITS :

   NOAA